createdAt,value
2022-10-22T00:00:11.595Z,27.20
2022-10-22T00:04:18.045Z,25.23
2022-10-22T00:06:19.782Z,28.15
2022-10-22T00:08:21.547Z,28.48
2022-10-22T00:10:23.440Z,32.80
2022-10-22T00:12:25.228Z,29.13
2022-10-22T00:14:26.805Z,26.63
2022-10-22T00:16:28.666Z,27.27
2022-10-22T00:18:30.284Z,22.73
2022-10-22T00:20:31.897Z,25.83
2022-10-22T00:22:33.604Z,22.02
2022-10-22T00:24:36.187Z,26.40
2022-10-22T00:26:39.437Z,24.80
2022-10-22T00:28:41.060Z,27.23
2022-10-22T00:30:42.638Z,26.27
2022-10-22T00:32:44.257Z,25.00
2022-10-22T00:34:46.098Z,30.70
2022-10-22T00:36:49.457Z,27.02
2022-10-22T00:38:51.092Z,28.93
2022-10-22T00:40:52.844Z,29.40
2022-10-22T00:42:54.748Z,28.75
2022-10-22T00:45:11.312Z,30.25
2022-10-22T00:47:13.588Z,24.27
2022-10-22T00:49:15.380Z,24.02
2022-10-22T00:51:17.039Z,26.77
2022-10-22T00:53:29.415Z,25.42
2022-10-22T00:55:31.341Z,23.20
2022-10-22T00:57:34.726Z,24.05
2022-10-22T00:59:37.187Z,26.13
2022-10-22T01:01:38.811Z,27.45
2022-10-22T01:03:40.802Z,22.02
2022-10-22T01:06:03.868Z,25.42
2022-10-22T01:08:06.879Z,25.88
2022-10-22T01:10:33.028Z,24.67
2022-10-22T01:12:46.833Z,22.45
2022-10-22T01:15:07.487Z,28.67
2022-10-22T01:17:42.188Z,23.35
2022-10-22T01:19:55.798Z,24.65
2022-10-22T01:22:03.913Z,23.90
2022-10-22T01:24:11.866Z,24.30
2022-10-22T01:26:30.084Z,26.27
2022-10-22T01:28:53.385Z,21.20
2022-10-22T01:30:56.620Z,24.00
2022-10-22T01:33:07.000Z,25.55
2022-10-22T01:35:11.442Z,23.38
2022-10-22T01:37:14.444Z,23.25
2022-10-22T01:39:16.631Z,25.17
2022-10-22T01:41:18.610Z,25.55
2022-10-22T01:43:20.467Z,25.45
2022-10-22T01:45:22.106Z,26.02
2022-10-22T01:47:45.424Z,27.70
2022-10-22T01:50:10.401Z,28.95
2022-10-22T01:52:46.475Z,31.63
2022-10-22T01:54:48.129Z,27.02
2022-10-22T01:56:52.809Z,30.13
2022-10-22T01:59:32.937Z,30.33
2022-10-22T02:01:40.438Z,23.83
2022-10-22T02:03:54.287Z,27.17
2022-10-22T02:06:01.343Z,25.77
2022-10-22T02:08:10.250Z,25.38
2022-10-22T02:10:12.296Z,27.50
2022-10-22T02:12:14.273Z,30.15
2022-10-22T02:14:16.717Z,31.52
2022-10-22T02:16:22.975Z,34.95
2022-10-22T02:18:28.048Z,32.08
2022-10-22T02:20:32.069Z,31.65
2022-10-22T02:22:34.433Z,27.52
2022-10-22T02:24:36.237Z,28.13
2022-10-22T02:27:06.887Z,27.17
2022-10-22T02:29:14.585Z,30.90
2022-10-22T02:31:20.414Z,29.35
2022-10-22T02:33:23.593Z,24.13
2022-10-22T02:35:26.733Z,24.33
2022-10-22T02:37:28.821Z,29.17
2022-10-22T02:39:31.535Z,28.95
2022-10-22T02:41:33.312Z,26.80
2022-10-22T02:43:52.367Z,23.52
2022-10-22T02:45:54.017Z,26.88
2022-10-22T02:47:55.681Z,27.85
2022-10-22T02:49:57.309Z,26.45
2022-10-22T02:51:59.839Z,25.85
2022-10-22T02:54:01.895Z,25.13
2022-10-22T02:56:03.502Z,26.45
2022-10-22T02:58:05.147Z,27.08
2022-10-22T03:00:09.262Z,22.13
2022-10-22T03:02:10.833Z,27.50
2022-10-22T03:04:12.519Z,23.52
2022-10-22T03:06:14.241Z,22.92
2022-10-22T03:08:15.897Z,27.45
2022-10-22T03:10:17.746Z,21.17
2022-10-22T03:12:19.361Z,24.67
2022-10-22T03:14:21.133Z,26.35
2022-10-22T03:16:22.813Z,24.33
2022-10-22T03:18:24.734Z,23.10
2022-10-22T03:20:26.524Z,28.55
2022-10-22T03:22:29.595Z,23.48
2022-10-22T03:24:53.209Z,26.13
2022-10-22T03:26:54.865Z,25.65
2022-10-22T03:28:56.516Z,27.25
2022-10-22T03:30:58.135Z,26.98
2022-10-22T03:32:59.715Z,24.45
2022-10-22T03:35:01.382Z,23.95
2022-10-22T03:37:03.227Z,26.20
2022-10-22T03:39:05.322Z,20.77
2022-10-22T03:41:07.347Z,22.45
2022-10-22T03:43:09.106Z,24.77
2022-10-22T03:45:29.514Z,20.95
2022-10-22T03:47:31.391Z,19.67
2022-10-22T03:49:33.243Z,24.38
2022-10-22T03:51:35.928Z,24.08
2022-10-22T03:53:37.643Z,23.58
2022-10-22T03:55:41.007Z,24.77
2022-10-22T03:57:42.827Z,27.48
2022-10-22T03:59:45.904Z,23.35
2022-10-22T04:01:47.551Z,23.87
2022-10-22T04:03:49.147Z,25.45
2022-10-22T04:05:50.778Z,21.38
2022-10-22T04:07:52.433Z,22.52
2022-10-22T04:09:54.112Z,51.78
2022-10-22T04:11:55.877Z,46.72
2022-10-22T04:13:57.490Z,35.65
2022-10-22T04:16:10.556Z,30.10
2022-10-22T04:18:12.219Z,28.20
2022-10-22T04:20:13.849Z,35.40
2022-10-22T04:22:15.596Z,30.90
2022-10-22T04:24:17.450Z,23.63
2022-10-22T04:26:20.082Z,25.63
2022-10-22T04:28:21.654Z,28.05
2022-10-22T04:30:23.328Z,27.20
2022-10-22T04:32:26.465Z,26.88
2022-10-22T04:34:29.251Z,27.48
2022-10-22T04:36:30.842Z,30.90
2022-10-22T04:38:32.502Z,29.25
2022-10-22T04:40:34.164Z,29.33
2022-10-22T04:42:35.746Z,31.85
2022-10-22T04:44:37.355Z,37.22
2022-10-22T04:46:38.975Z,31.10
2022-10-22T04:48:42.068Z,32.33
2022-10-22T04:50:43.660Z,31.10
2022-10-22T04:52:45.234Z,26.17
2022-10-22T04:54:47.165Z,53.15
2022-10-22T04:56:48.778Z,33.28
2022-10-22T04:58:58.082Z,29.30
2022-10-22T05:00:59.714Z,27.42
2022-10-22T05:03:01.380Z,25.50
2022-10-22T05:05:03.253Z,30.20
2022-10-22T05:07:04.915Z,27.63
2022-10-22T05:09:13.551Z,28.75
2022-10-22T05:11:18.523Z,27.63
2022-10-22T05:13:20.137Z,28.58
2022-10-22T05:15:21.784Z,33.00
2022-10-22T05:17:23.369Z,26.48
2022-10-22T05:19:31.050Z,30.77
2022-10-22T05:21:33.311Z,34.90
2022-10-22T05:23:34.925Z,28.10
2022-10-22T05:25:39.482Z,32.10
2022-10-22T05:27:41.463Z,39.83
2022-10-22T05:29:43.240Z,33.53
2022-10-22T05:31:44.846Z,31.08
2022-10-22T05:33:46.938Z,34.13
2022-10-22T05:35:49.801Z,33.80
2022-10-22T05:37:51.411Z,43.78
2022-10-22T05:40:01.840Z,31.15
2022-10-22T05:42:14.286Z,31.77
2022-10-22T05:44:16.188Z,39.53
2022-10-22T05:46:22.534Z,34.55
2022-10-22T05:48:24.629Z,38.00
2022-10-22T05:50:26.236Z,39.60
2022-10-22T05:52:27.905Z,36.35
2022-10-22T05:54:29.527Z,33.33
2022-10-22T05:56:34.970Z,37.58
2022-10-22T05:58:36.886Z,33.85
2022-10-22T06:00:38.605Z,31.88
2022-10-22T06:02:40.386Z,34.97
2022-10-22T06:04:42.314Z,29.08
2022-10-22T06:06:45.904Z,29.98
2022-10-22T06:08:49.202Z,34.28
2022-10-22T06:10:50.876Z,33.90
2022-10-22T06:12:52.721Z,38.03
2022-10-22T06:14:54.418Z,36.03
2022-10-22T06:16:56.139Z,42.67
2022-10-22T06:18:59.388Z,38.90
2022-10-22T06:21:09.175Z,40.10
2022-10-22T06:23:10.826Z,41.38
2022-10-22T06:25:14.425Z,41.47
2022-10-22T06:27:16.023Z,45.42
2022-10-22T06:29:17.643Z,46.83
2022-10-22T06:31:19.317Z,42.50
2022-10-22T06:33:20.915Z,38.15
2022-10-22T06:35:22.554Z,35.13
2022-10-22T06:37:24.232Z,36.15
2022-10-22T06:39:25.838Z,35.55
2022-10-22T06:41:29.612Z,37.85
2022-10-22T06:43:31.767Z,35.10
2022-10-22T06:45:33.342Z,36.28
2022-10-22T06:47:34.893Z,35.22
2022-10-22T06:49:36.634Z,33.28
2022-10-22T06:51:38.223Z,30.27
2022-10-22T06:53:40.299Z,73.10
2022-10-22T06:55:42.006Z,42.17
2022-10-22T06:57:43.892Z,32.22
2022-10-22T06:59:46.434Z,33.28
2022-10-22T07:01:48.716Z,37.40
2022-10-22T07:03:51.463Z,36.63
2022-10-22T07:05:53.082Z,42.65
2022-10-22T07:07:54.662Z,46.60
2022-10-22T07:09:56.644Z,40.25
2022-10-22T07:11:58.213Z,38.60
2022-10-22T07:14:00.212Z,40.80
2022-10-22T07:16:02.207Z,43.65
2022-10-22T07:18:04.855Z,39.50
2022-10-22T07:20:07.030Z,42.25
2022-10-22T07:22:08.740Z,39.40
2022-10-22T07:24:10.687Z,50.85
2022-10-22T07:26:14.911Z,39.55
2022-10-22T07:28:16.585Z,38.10
2022-10-22T07:30:18.582Z,49.25
2022-10-22T07:32:23.732Z,42.03
2022-10-22T07:34:25.599Z,40.25
2022-10-22T07:36:27.393Z,34.60
2022-10-22T07:38:29.422Z,38.30
2022-10-22T07:40:31.102Z,39.08
2022-10-22T07:42:32.932Z,35.65
2022-10-22T07:44:34.610Z,39.20
2022-10-22T07:46:36.153Z,34.53
2022-10-22T07:48:38.149Z,35.05
2022-10-22T07:50:39.904Z,29.00
2022-10-22T07:52:41.951Z,32.28
2022-10-22T07:54:43.682Z,31.63
2022-10-22T07:56:45.293Z,29.92
2022-10-22T07:58:47.029Z,28.00
2022-10-22T08:00:49.800Z,29.73
2022-10-22T08:02:51.420Z,27.88
2022-10-22T08:04:53.090Z,30.75
2022-10-22T08:06:54.730Z,34.33
2022-10-22T08:08:56.668Z,31.73
2022-10-22T08:11:00.508Z,33.67
2022-10-22T08:15:04.645Z,32.13
2022-10-22T08:17:06.368Z,39.30
2022-10-22T08:19:07.987Z,39.53
2022-10-22T08:21:09.971Z,31.92
2022-10-22T08:23:11.632Z,32.53
2022-10-22T08:25:13.217Z,32.47
2022-10-22T08:27:14.880Z,36.72
2022-10-22T08:29:16.506Z,30.38
2022-10-22T08:31:18.168Z,28.50
2022-10-22T08:33:19.897Z,27.50
2022-10-22T08:35:22.614Z,27.77
2022-10-22T08:37:24.350Z,24.63
2022-10-22T08:39:26.391Z,22.95
2022-10-22T08:41:28.132Z,31.17
2022-10-22T08:43:58.661Z,31.00
2022-10-22T08:46:14.621Z,36.40
2022-10-22T08:48:36.039Z,28.95
2022-10-22T08:50:57.313Z,32.03
2022-10-22T08:52:59.396Z,31.75
2022-10-22T08:55:03.683Z,28.55
2022-10-22T08:57:20.347Z,27.73
2022-10-22T08:59:34.378Z,33.03
2022-10-22T09:01:39.609Z,28.20
2022-10-22T09:03:50.450Z,33.72
2022-10-22T09:06:21.259Z,34.95
2022-10-22T09:08:23.400Z,32.28
2022-10-22T09:10:29.901Z,33.80
2022-10-22T09:12:31.513Z,29.70
2022-10-22T09:14:33.213Z,31.08
2022-10-22T09:16:56.610Z,31.98
2022-10-22T09:19:12.181Z,29.92
2022-10-22T09:21:17.119Z,26.40
2022-10-22T09:23:36.316Z,32.13
2022-10-22T09:25:38.855Z,29.95
2022-10-22T09:27:40.837Z,28.85
2022-10-22T09:29:44.174Z,28.63
2022-10-22T09:31:46.105Z,27.08
2022-10-22T09:33:50.616Z,33.53
2022-10-22T09:35:59.385Z,27.67
2022-10-22T09:38:08.550Z,30.52
2022-10-22T09:40:15.162Z,33.08
2022-10-22T09:42:19.258Z,33.10
2022-10-22T09:44:21.301Z,30.10
2022-10-22T09:46:26.344Z,29.73
2022-10-22T09:48:34.414Z,30.35
2022-10-22T09:50:42.775Z,28.52
2022-10-22T09:52:44.832Z,31.65
2022-10-22T09:54:46.732Z,30.83
2022-10-22T09:57:04.158Z,35.75
2022-10-22T09:59:06.907Z,38.63
2022-10-22T10:01:08.604Z,36.92
2022-10-22T10:03:18.298Z,35.17
2022-10-22T10:05:24.888Z,28.77
2022-10-22T10:07:31.028Z,35.60
2022-10-22T10:09:35.132Z,30.92
2022-10-22T10:11:43.961Z,31.27
2022-10-22T10:14:16.645Z,31.67
2022-10-22T10:16:36.319Z,32.20
2022-10-22T10:18:54.061Z,29.13
2022-10-22T10:21:40.893Z,30.10
2022-10-22T10:24:31.457Z,29.00
2022-10-22T10:26:36.977Z,31.80
2022-10-22T10:29:00.214Z,27.58
2022-10-22T10:31:15.480Z,30.55
2022-10-22T10:33:32.240Z,26.17
2022-10-22T10:35:55.182Z,27.08
2022-10-22T10:38:02.792Z,31.52
2022-10-22T10:40:24.631Z,24.65
2022-10-22T10:42:36.721Z,27.10
2022-10-22T10:45:00.469Z,24.13
2022-10-22T10:47:24.504Z,26.30
2022-10-22T10:49:27.844Z,24.77
2022-10-22T10:51:41.502Z,38.25
2022-10-22T10:54:00.049Z,25.00
2022-10-22T10:56:12.135Z,30.20
2022-10-22T10:58:21.832Z,26.25
2022-10-22T11:00:24.048Z,22.77
2022-10-22T11:03:13.115Z,27.92
2022-10-22T11:05:28.214Z,25.85
2022-10-22T11:07:39.393Z,25.02
2022-10-22T11:10:05.642Z,25.40
2022-10-22T11:12:15.114Z,26.55
2022-10-22T11:14:24.270Z,29.35
2022-10-22T11:16:37.629Z,28.23
2022-10-22T11:18:43.557Z,24.75
2022-10-22T11:21:10.245Z,26.08
2022-10-22T11:23:19.854Z,26.92
2022-10-22T11:25:25.754Z,27.05
2022-10-22T11:27:33.834Z,24.33
2022-10-22T11:29:39.404Z,26.20
2022-10-22T11:31:41.704Z,22.90
2022-10-22T11:33:48.940Z,25.58
2022-10-22T11:35:51.030Z,24.33
2022-10-22T11:37:55.004Z,25.48
2022-10-22T11:40:07.968Z,25.48
2022-10-22T11:42:24.396Z,22.98
2022-10-22T11:44:26.226Z,28.55
2022-10-22T11:46:58.829Z,22.48
2022-10-22T11:49:15.643Z,22.10
2022-10-22T11:51:36.586Z,21.52
2022-10-22T11:53:39.131Z,23.23
2022-10-22T11:55:48.496Z,19.97
2022-10-22T11:57:50.221Z,24.38
2022-10-22T12:00:01.771Z,22.23
2022-10-22T12:02:03.445Z,19.83
2022-10-22T12:04:16.770Z,17.77
2022-10-22T12:06:21.153Z,19.90
2022-10-22T12:08:25.489Z,21.05
2022-10-22T12:10:37.198Z,20.25
2022-10-22T12:12:40.201Z,27.52
2022-10-22T12:14:59.994Z,19.95
2022-10-22T12:17:10.344Z,20.42
2022-10-22T12:19:22.970Z,18.50
2022-10-22T12:21:25.141Z,24.75
2022-10-22T12:23:32.352Z,18.75
2022-10-22T12:25:35.801Z,20.05
2022-10-22T12:27:39.654Z,19.05
2022-10-22T12:29:41.473Z,19.33
2022-10-22T12:31:45.093Z,23.20
2022-10-22T12:35:51.565Z,23.67
2022-10-22T12:37:56.632Z,19.42
2022-10-22T12:39:58.289Z,18.95
2022-10-22T12:41:59.932Z,19.40
2022-10-22T12:44:02.704Z,21.20
2022-10-22T12:46:04.366Z,17.40
2022-10-22T12:48:11.377Z,18.40
2022-10-22T12:50:19.104Z,20.75
2022-10-22T12:52:22.545Z,22.35
2022-10-22T12:54:29.245Z,23.88
2022-10-22T12:56:32.822Z,17.20
2022-10-22T12:58:39.232Z,22.67
2022-10-22T13:00:41.435Z,18.85
2022-10-22T13:02:45.449Z,16.50
2022-10-22T13:05:25.989Z,20.77
2022-10-22T13:07:38.645Z,17.45
2022-10-22T13:09:42.444Z,14.55
2022-10-22T13:11:58.315Z,16.40
2022-10-22T13:14:34.192Z,13.80
2022-10-22T13:18:43.816Z,12.75
2022-10-22T13:21:01.855Z,17.95
2022-10-22T13:23:05.856Z,16.52
2022-10-22T13:25:13.136Z,19.08
2022-10-22T13:27:14.799Z,13.13
2022-10-22T13:29:18.029Z,16.05
2022-10-22T13:31:23.430Z,16.13
2022-10-22T13:33:33.662Z,13.85
2022-10-22T13:35:37.398Z,16.38
2022-10-22T13:37:39.144Z,19.48
2022-10-22T13:39:41.223Z,19.23
2022-10-22T13:41:42.871Z,19.00
2022-10-22T13:43:44.497Z,21.17
2022-10-22T13:45:47.954Z,17.77
2022-10-22T13:47:52.452Z,16.17
2022-10-22T13:49:58.384Z,16.30
2022-10-22T13:52:01.187Z,16.83
2022-10-22T13:54:04.088Z,22.10
2022-10-22T13:56:05.748Z,15.77
2022-10-22T13:58:11.771Z,16.17
2022-10-22T14:00:18.812Z,17.02
2022-10-22T14:02:22.393Z,20.90
2022-10-22T14:04:24.018Z,14.38
2022-10-22T14:06:31.406Z,21.42
2022-10-22T14:08:33.199Z,13.20
2022-10-22T14:10:34.879Z,14.90
2022-10-22T14:12:36.437Z,15.73
2022-10-22T14:14:38.364Z,19.38
2022-10-22T14:16:40.013Z,17.02
2022-10-22T14:18:41.737Z,14.38
2022-10-22T14:20:43.544Z,17.63
2022-10-22T14:22:46.921Z,13.90
2022-10-22T14:24:49.722Z,14.75
2022-10-22T14:26:51.488Z,13.75
2022-10-22T14:29:09.943Z,16.23
2022-10-22T14:31:12.567Z,18.88
2022-10-22T14:33:34.438Z,12.95
2022-10-22T14:35:35.963Z,14.73
2022-10-22T14:37:37.601Z,16.17
2022-10-22T14:39:39.852Z,17.45
2022-10-22T14:41:41.764Z,18.08
2022-10-22T14:43:43.391Z,18.45
2022-10-22T14:45:45.055Z,17.92
2022-10-22T14:47:47.377Z,16.33
2022-10-22T14:49:48.977Z,18.98
2022-10-22T14:51:50.614Z,19.73
2022-10-22T14:53:52.250Z,16.42
2022-10-22T14:55:57.655Z,18.70
2022-10-22T14:57:59.467Z,13.57
2022-10-22T15:00:01.053Z,19.80
2022-10-22T15:02:02.663Z,16.58
2022-10-22T15:04:04.639Z,17.10
2022-10-22T15:06:06.529Z,20.23
2022-10-22T15:08:08.157Z,17.55
2022-10-22T15:10:10.700Z,17.15
2022-10-22T15:12:12.301Z,20.42
2022-10-22T15:14:15.560Z,23.40
2022-10-22T15:16:18.354Z,19.05
2022-10-22T15:18:20.070Z,20.60
2022-10-22T15:20:21.642Z,23.25
2022-10-22T15:22:23.348Z,20.48
2022-10-22T15:24:25.196Z,24.98
2022-10-22T15:26:27.886Z,22.80
2022-10-22T15:28:29.591Z,23.25
2022-10-22T15:30:31.281Z,27.80
2022-10-22T15:32:34.100Z,22.77
2022-10-22T15:34:36.554Z,29.03
2022-10-22T15:36:38.150Z,29.08
2022-10-22T15:38:39.908Z,31.67
2022-10-22T15:40:41.573Z,30.38
2022-10-22T15:42:43.369Z,30.33
2022-10-22T15:44:45.388Z,26.65
2022-10-22T15:46:47.082Z,27.25
2022-10-22T15:48:49.029Z,37.72
2022-10-22T15:50:50.650Z,28.10
2022-10-22T15:52:52.336Z,32.28
2022-10-22T15:54:53.975Z,28.90
2022-10-22T15:56:56.419Z,39.30
2022-10-22T15:59:05.431Z,35.80
2022-10-22T16:01:09.087Z,45.13
2022-10-22T16:05:12.235Z,36.63
2022-10-22T16:07:13.902Z,31.27
2022-10-22T16:09:18.253Z,25.98
2022-10-22T16:11:19.956Z,28.42
2022-10-22T16:13:23.993Z,40.25
2022-10-22T16:15:25.705Z,61.10
2022-10-22T16:17:27.289Z,44.55
2022-10-22T16:19:29.638Z,45.40
2022-10-22T16:21:31.295Z,36.72
2022-10-22T16:23:34.009Z,50.58
2022-10-22T16:25:41.837Z,36.22
2022-10-22T16:27:43.503Z,42.25
2022-10-22T16:29:45.335Z,42.80
2022-10-22T16:31:46.978Z,38.88
2022-10-22T16:33:50.359Z,41.45
2022-10-22T16:35:52.128Z,45.38
2022-10-22T16:37:53.874Z,43.03
2022-10-22T16:39:55.505Z,58.05
2022-10-22T16:41:57.355Z,55.97
2022-10-22T16:44:00.906Z,49.55
2022-10-22T16:46:02.603Z,72.13
2022-10-22T16:48:04.473Z,87.57
2022-10-22T16:50:07.762Z,54.05
2022-10-22T16:52:09.477Z,42.25
2022-10-22T16:54:12.570Z,69.90
2022-10-22T16:56:16.178Z,88.43
2022-10-22T16:58:17.808Z,83.00
2022-10-22T17:00:20.404Z,73.65
2022-10-22T17:02:21.970Z,59.17
2022-10-22T17:04:23.811Z,54.22
2022-10-22T17:06:25.999Z,54.35
2022-10-22T17:08:27.614Z,61.78
2022-10-22T17:10:29.348Z,47.00
2022-10-22T17:12:35.369Z,46.15
2022-10-22T17:14:37.172Z,95.00
2022-10-22T17:16:38.962Z,195.07
2022-10-22T17:18:41.762Z,83.35
2022-10-22T17:20:43.791Z,89.57
2022-10-22T17:22:45.921Z,75.95
2022-10-22T17:24:47.520Z,67.03
2022-10-22T17:26:49.133Z,45.25
2022-10-22T17:28:51.126Z,42.80
2022-10-22T17:31:05.617Z,41.80
2022-10-22T17:33:08.297Z,38.33
2022-10-22T17:35:10.010Z,42.35
2022-10-22T17:37:11.690Z,49.80
2022-10-22T17:39:16.767Z,45.22
2022-10-22T17:41:20.808Z,50.47
2022-10-22T17:43:22.419Z,38.10
2022-10-22T17:45:24.522Z,43.88
2022-10-22T17:47:26.315Z,39.92
2022-10-22T17:49:27.929Z,37.63
2022-10-22T17:51:31.176Z,44.47
2022-10-22T17:53:32.872Z,40.55
2022-10-22T17:55:34.953Z,41.00
2022-10-22T17:57:36.474Z,47.22
2022-10-22T17:59:38.076Z,51.38
2022-10-22T18:01:45.247Z,55.47
2022-10-22T18:03:47.247Z,52.28
2022-10-22T18:05:49.246Z,45.03
2022-10-22T18:07:54.664Z,47.33
2022-10-22T18:09:56.426Z,42.90
2022-10-22T18:11:58.087Z,43.63
2022-10-22T18:13:59.772Z,44.50
2022-10-22T18:16:01.428Z,42.50
2022-10-22T18:18:04.025Z,34.40
2022-10-22T18:20:06.141Z,31.80
2022-10-22T18:22:08.123Z,32.92
2022-10-22T18:24:10.172Z,30.50
2022-10-22T18:26:12.321Z,31.00
2022-10-22T18:28:16.564Z,91.22
2022-10-22T18:30:18.193Z,71.60
2022-10-22T18:32:19.746Z,48.05
2022-10-22T18:34:23.804Z,34.33
2022-10-22T18:36:27.014Z,37.30
2022-10-22T18:38:28.691Z,40.47
2022-10-22T18:40:30.502Z,42.10
2022-10-22T18:42:33.714Z,49.13
2022-10-22T18:44:37.193Z,48.08
2022-10-22T18:46:39.681Z,43.45
2022-10-22T18:48:41.423Z,42.38
2022-10-22T18:50:43.669Z,41.13
2022-10-22T18:52:45.315Z,49.00
2022-10-22T18:54:46.898Z,45.38
2022-10-22T18:56:48.692Z,53.60
2022-10-22T19:00:56.797Z,44.45
2022-10-22T19:02:58.648Z,43.25
2022-10-22T19:05:00.228Z,42.85
2022-10-22T19:07:02.068Z,42.78
2022-10-22T19:09:04.566Z,40.88
2022-10-22T19:11:14.699Z,39.55
2022-10-22T19:13:18.140Z,46.88
2022-10-22T19:15:20.039Z,43.47
2022-10-22T19:17:21.909Z,42.30
2022-10-22T19:19:24.399Z,38.35
2022-10-22T19:21:26.298Z,42.03
2022-10-22T19:23:30.318Z,43.20
2022-10-22T19:25:31.967Z,44.45
2022-10-22T19:27:33.666Z,37.60
2022-10-22T19:29:35.395Z,40.45
2022-10-22T19:31:37.491Z,40.63
2022-10-22T19:33:39.399Z,38.58
2022-10-22T19:35:41.085Z,36.83
2022-10-22T19:37:47.512Z,42.08
2022-10-22T19:39:50.427Z,36.60
2022-10-22T19:41:52.087Z,42.03
2022-10-22T19:43:54.836Z,49.10
2022-10-22T19:45:56.440Z,54.53
2022-10-22T19:47:58.157Z,45.85
2022-10-22T19:49:59.739Z,45.33
2022-10-22T19:52:01.337Z,40.75
2022-10-22T19:54:05.888Z,37.40
2022-10-22T19:56:09.770Z,37.72
2022-10-22T19:58:12.466Z,36.90
2022-10-22T20:00:14.374Z,32.33
2022-10-22T20:02:17.692Z,29.88
2022-10-22T20:04:19.673Z,28.40
2022-10-22T20:06:22.012Z,28.73
2022-10-22T20:08:23.626Z,31.10
2022-10-22T20:10:25.214Z,32.80
2022-10-22T20:12:26.899Z,31.73
2022-10-22T20:14:28.564Z,32.00
2022-10-22T20:16:30.295Z,34.83
2022-10-22T20:18:34.128Z,35.45
2022-10-22T20:22:39.589Z,37.80
2022-10-22T20:24:41.342Z,38.28
2022-10-22T20:26:45.746Z,30.48
2022-10-22T20:28:47.326Z,34.63
2022-10-22T20:30:48.991Z,34.42
2022-10-22T20:32:50.623Z,35.35
2022-10-22T20:34:52.248Z,37.75
2022-10-22T20:37:12.349Z,29.95
2022-10-22T20:39:15.339Z,33.55
2022-10-22T20:41:25.987Z,38.25
2022-10-22T20:43:27.594Z,45.40
2022-10-22T20:45:29.508Z,41.13
2022-10-22T20:47:44.341Z,41.78
2022-10-22T20:49:52.939Z,39.97
2022-10-22T20:51:54.513Z,45.83
2022-10-22T20:53:56.505Z,41.38
2022-10-22T20:55:59.155Z,38.72
2022-10-22T20:58:00.797Z,47.05
2022-10-22T21:00:02.501Z,42.30
2022-10-22T21:02:04.430Z,41.47
2022-10-22T21:04:06.297Z,39.05
2022-10-22T21:06:08.106Z,41.72
2022-10-22T21:08:12.033Z,45.20
2022-10-22T21:10:13.607Z,42.97
2022-10-22T21:12:15.314Z,47.33
2022-10-22T21:14:20.145Z,41.40
2022-10-22T21:16:21.750Z,44.53
2022-10-22T21:18:23.444Z,39.97
2022-10-22T21:20:25.104Z,39.33
2022-10-22T21:22:26.760Z,40.72
2022-10-22T21:24:28.481Z,36.80
2022-10-22T21:26:30.145Z,41.20
2022-10-22T21:28:36.083Z,40.30
2022-10-22T21:30:45.066Z,39.47
2022-10-22T21:32:46.691Z,36.67
2022-10-22T21:34:48.304Z,37.33
2022-10-22T21:36:50.086Z,36.17
2022-10-22T21:38:52.412Z,35.97
2022-10-22T21:40:53.991Z,36.13
2022-10-22T21:42:55.625Z,37.08
2022-10-22T21:44:57.320Z,35.53
2022-10-22T21:46:58.915Z,36.53
2022-10-22T21:49:02.778Z,40.10
2022-10-22T21:51:13.303Z,35.92
2022-10-22T21:53:14.934Z,39.45
2022-10-22T21:55:16.511Z,33.85
2022-10-22T21:57:18.112Z,29.58
2022-10-22T21:59:19.778Z,30.13
2022-10-22T22:01:22.355Z,38.05
2022-10-22T22:03:24.828Z,33.88
2022-10-22T22:05:27.020Z,36.72
2022-10-22T22:07:28.605Z,33.67
2022-10-22T22:09:30.168Z,35.10
2022-10-22T22:11:32.475Z,32.22
2022-10-22T22:13:34.945Z,30.83
2022-10-22T22:15:36.550Z,31.55
2022-10-22T22:17:38.175Z,33.20
2022-10-22T22:19:39.854Z,33.47
2022-10-22T22:21:42.161Z,31.55
2022-10-22T22:23:45.907Z,28.70
2022-10-22T22:27:48.965Z,31.45
2022-10-22T22:29:50.864Z,26.77
2022-10-22T22:31:52.521Z,35.72
2022-10-22T22:34:08.396Z,33.58
2022-10-22T22:36:10.972Z,36.10
2022-10-22T22:38:12.536Z,30.45
2022-10-22T22:40:14.151Z,32.35
2022-10-22T22:42:15.753Z,33.67
2022-10-22T22:44:17.697Z,34.40
2022-10-22T22:46:19.270Z,36.60
2022-10-22T22:48:21.059Z,35.92
2022-10-22T22:50:22.685Z,33.75
2022-10-22T22:52:24.313Z,29.90
2022-10-22T22:54:26.103Z,27.77
2022-10-22T22:56:29.764Z,32.53
2022-10-22T22:58:31.453Z,33.30
2022-10-22T23:00:33.459Z,26.92
2022-10-22T23:02:35.120Z,29.42
2022-10-22T23:04:36.764Z,27.65
2022-10-22T23:06:39.195Z,27.85
2022-10-22T23:08:41.814Z,26.55
2022-10-22T23:10:43.524Z,26.35
2022-10-22T23:12:45.325Z,26.30
2022-10-22T23:14:50.373Z,29.50
2022-10-22T23:16:52.816Z,30.83
2022-10-22T23:18:55.448Z,26.75
2022-10-22T23:20:57.039Z,27.70
2022-10-22T23:22:58.609Z,31.10
2022-10-22T23:25:00.290Z,28.52
2022-10-22T23:27:03.931Z,29.63
2022-10-22T23:29:13.517Z,32.50
2022-10-22T23:31:16.859Z,27.67
2022-10-22T23:33:19.454Z,29.90
2022-10-22T23:35:21.164Z,30.38
2022-10-22T23:37:22.848Z,30.92
2022-10-22T23:39:27.039Z,27.83
2022-10-22T23:41:28.604Z,27.70
2022-10-22T23:43:31.226Z,29.42
2022-10-22T23:45:36.477Z,28.17
2022-10-22T23:47:38.136Z,29.77
2022-10-22T23:49:39.706Z,27.63
2022-10-22T23:51:41.465Z,25.08
2022-10-22T23:53:44.433Z,26.73
2022-10-22T23:55:46.049Z,32.93
2022-10-22T23:57:47.677Z,29.23
2022-10-22T23:59:49.644Z,25.33
